Basin, Idaho
Current Conditions -  °F | °C
As of 5:53 PM on Wednesday 17 Dec 2014 (Local Time) from KBYI Reporting Station
Clear Clear  
Wind Chill: 27°   Ceiling: Unl
Heat Index: 34°   Visibility: 10mi
Dew Point: 27°   Wind: 9mph
Humidity: 75%   Direction: 80°E
Pressure: 29.97"   Gusts: NA
Location:  42.2256°N, 114.022°W
Report Text: KBYI 180053Z AUTO 08008KT 10SM CLR 01/M03 A2997 RMK AO2 SLP173 T00111028
Loading
Personal Weather Stations






























Interactive Weather Map New forecast layout! Learn more

10-Day Weather Forecast

Advertisements
Track Severe Weather on mobile